Terminal Aerodrome Forecast
Issued by NWS

Home | Current Version | Previous Version | Text Only | Print | Product List | Glossary On
Versions: 1 2 3 4 5 6 7 8 9 10 11 12 13 14 15 16 17 18
000
FTUS41 KBGM 080208 AAB
TAFRME
TAF AMD
KRME 080208Z 0802/0824 25006KT P6SM BKN050
      TEMPO 0802/0804 -SHRA OVC040
     FM080400 26008KT P6SM SCT025 OVC040
      TEMPO 0804/0806 5SM -SHRA BR OVC025
     FM080900 30008KT 5SM BR BKN015 OVC030
     FM081300 31008KT P6SM SCT040=

USA.gov is the U.S. government's official web portal to all federal, state and local government web resources and services.